createdAt,value
2022-07-26T00:04:58.854Z,3.60
2022-07-26T00:10:00.626Z,4.50
2022-07-26T00:15:04.046Z,3.60
2022-07-26T00:20:07.055Z,3.70
2022-07-26T00:25:09.648Z,4.70
2022-07-26T00:30:12.128Z,4.20
2022-07-26T00:35:15.130Z,4.10
2022-07-26T00:40:17.932Z,4.00
2022-07-26T00:50:21.584Z,3.20
2022-07-26T00:55:23.562Z,3.60
2022-07-26T01:00:28.628Z,4.10
2022-07-26T01:05:32.545Z,5.80
2022-07-26T01:10:34.621Z,5.80
2022-07-26T01:15:36.599Z,5.20
2022-07-26T01:20:39.342Z,4.20
2022-07-26T01:25:43.688Z,4.80
2022-07-26T01:30:49.469Z,5.40
2022-07-26T01:35:51.583Z,4.50
2022-07-26T01:40:54.074Z,4.70
2022-07-26T01:45:56.221Z,3.80
2022-07-26T01:50:58.546Z,4.50
2022-07-26T01:56:00.730Z,5.10
2022-07-26T02:01:03.324Z,6.00
2022-07-26T02:06:05.819Z,3.80
2022-07-26T02:11:08.102Z,4.80
2022-07-26T02:16:14.867Z,5.10
2022-07-26T02:21:16.877Z,5.40
2022-07-26T02:26:18.855Z,5.20
2022-07-26T02:31:21.061Z,4.40
2022-07-26T02:36:23.020Z,8.40
2022-07-26T02:41:25.098Z,5.40
2022-07-26T02:46:27.756Z,4.00
2022-07-26T02:56:31.858Z,4.30
2022-07-26T03:01:35.366Z,4.10
2022-07-26T03:06:37.763Z,4.40
2022-07-26T03:11:39.742Z,5.30
2022-07-26T03:16:42.645Z,5.80
2022-07-26T03:21:44.487Z,3.90
2022-07-26T03:26:46.400Z,3.60
2022-07-26T03:31:48.173Z,5.00
2022-07-26T03:36:50.154Z,4.40
2022-07-26T03:41:52.030Z,4.00
2022-07-26T03:46:54.221Z,4.60
2022-07-26T03:51:56.192Z,4.30
2022-07-26T03:56:58.072Z,3.70
2022-07-26T04:02:00.514Z,5.30
2022-07-26T04:07:03.228Z,6.10
2022-07-26T04:12:06.365Z,4.70
2022-07-26T04:17:08.312Z,5.90
2022-07-26T04:22:10.324Z,3.50
2022-07-26T04:27:12.135Z,3.80
2022-07-26T04:32:14.089Z,3.80
2022-07-26T04:37:16.159Z,7.50
2022-07-26T04:42:18.241Z,5.80
2022-07-26T04:47:20.529Z,3.70
2022-07-26T04:52:22.508Z,8.00
2022-07-26T05:02:27.195Z,5.50
2022-07-26T05:07:40.224Z,4.50
2022-07-26T05:12:42.443Z,5.00
2022-07-26T05:17:44.901Z,3.20
2022-07-26T05:22:47.493Z,5.90
2022-07-26T05:27:49.470Z,3.30
2022-07-26T05:32:51.454Z,3.10
2022-07-26T05:37:53.504Z,5.90
2022-07-26T05:42:55.513Z,5.00
2022-07-26T05:47:57.605Z,3.60
2022-07-26T05:52:59.783Z,4.90
2022-07-26T05:58:01.762Z,7.60
2022-07-26T06:03:21.555Z,4.70
2022-07-26T06:08:25.627Z,4.50
2022-07-26T06:13:27.771Z,4.40
2022-07-26T06:18:29.784Z,3.20
2022-07-26T06:23:34.337Z,4.80
2022-07-26T06:28:38.893Z,5.30
2022-07-26T06:33:41.017Z,3.40
2022-07-26T06:38:43.296Z,3.50
2022-07-26T06:43:45.173Z,5.60
2022-07-26T06:48:52.933Z,4.90
2022-07-26T06:53:59.000Z,5.50
2022-07-26T06:59:09.071Z,5.20
2022-07-26T07:04:11.930Z,5.30
2022-07-26T07:09:14.154Z,4.00
2022-07-26T07:14:18.042Z,7.00
2022-07-26T07:24:23.474Z,4.10
2022-07-26T07:29:26.029Z,3.60
2022-07-26T07:34:31.185Z,4.80
2022-07-26T07:39:34.561Z,5.30
2022-07-26T07:44:41.286Z,4.20
2022-07-26T07:49:43.485Z,3.70
2022-07-26T07:54:45.860Z,4.60
2022-07-26T08:04:49.824Z,4.20
2022-07-26T08:09:52.271Z,4.10
2022-07-26T08:14:54.307Z,5.70
2022-07-26T08:20:00.039Z,4.40
2022-07-26T08:25:03.888Z,4.50
2022-07-26T08:30:07.137Z,5.10
2022-07-26T08:35:17.671Z,5.90
2022-07-26T08:40:23.587Z,5.40
2022-07-26T08:45:29.113Z,6.00
2022-07-26T08:50:33.033Z,7.40
2022-07-26T08:56:04.216Z,5.00
2022-07-26T09:01:07.751Z,5.10
2022-07-26T09:06:22.906Z,6.00
2022-07-26T09:11:33.128Z,7.10
2022-07-26T09:16:39.362Z,5.00
2022-07-26T09:21:42.253Z,5.10
2022-07-26T09:32:31.473Z,4.80
2022-07-26T09:37:35.914Z,8.60
2022-07-26T09:42:54.129Z,5.10
2022-07-26T09:47:56.354Z,4.80
2022-07-26T09:53:00.333Z,5.10
2022-07-26T09:58:04.350Z,5.20
2022-07-26T10:03:06.494Z,5.30
2022-07-26T10:13:11.371Z,5.70
2022-07-26T10:23:45.805Z,8.10
2022-07-26T10:28:48.030Z,3.80
2022-07-26T10:33:51.960Z,4.50
2022-07-26T10:39:12.328Z,4.10
2022-07-26T10:44:19.363Z,4.10
2022-07-26T10:49:30.050Z,3.90
2022-07-26T10:54:32.436Z,4.10
2022-07-26T11:05:14.713Z,4.10
2022-07-26T11:10:44.576Z,3.80
2022-07-26T11:16:00.136Z,3.60
2022-07-26T11:21:10.956Z,3.50
2022-07-26T11:26:16.359Z,5.80
2022-07-26T11:31:20.200Z,3.90
2022-07-26T11:36:43.028Z,3.70
2022-07-26T11:41:45.086Z,3.60
2022-07-26T11:46:48.696Z,4.50
2022-07-26T11:51:53.963Z,3.10
2022-07-26T11:56:58.774Z,3.50
2022-07-26T12:02:02.746Z,4.80
2022-07-26T12:07:13.267Z,5.00
2022-07-26T12:12:32.603Z,2.90
2022-07-26T12:17:35.773Z,3.60
2022-07-26T12:22:38.128Z,4.60
2022-07-26T12:27:46.293Z,4.30
2022-07-26T12:32:51.612Z,4.90
2022-07-26T12:37:54.101Z,5.30
2022-07-26T12:43:01.271Z,5.20
2022-07-26T12:48:12.047Z,3.70
2022-07-26T12:53:14.172Z,3.10
2022-07-26T12:58:15.949Z,3.70
2022-07-26T13:03:18.037Z,4.00
2022-07-26T13:08:19.906Z,2.90
2022-07-26T13:13:21.886Z,3.10
2022-07-26T13:18:23.874Z,3.10
2022-07-26T13:23:26.811Z,3.80
2022-07-26T13:28:29.568Z,3.10
2022-07-26T13:33:32.678Z,4.00
2022-07-26T13:38:34.968Z,3.40
2022-07-26T13:43:37.089Z,3.90
2022-07-26T13:48:52.517Z,2.90
2022-07-26T13:54:02.821Z,3.70
2022-07-26T13:59:05.301Z,3.30
2022-07-26T14:04:09.442Z,3.10
2022-07-26T14:09:12.849Z,2.90
2022-07-26T14:14:15.850Z,3.60
2022-07-26T14:19:18.545Z,4.10
2022-07-26T14:24:21.345Z,4.20
2022-07-26T14:29:23.531Z,5.20
2022-07-26T14:34:26.021Z,4.60
2022-07-26T14:39:28.308Z,5.60
2022-07-26T14:44:30.497Z,3.70
2022-07-26T14:49:32.637Z,3.50
2022-07-26T14:54:34.969Z,5.80
2022-07-26T15:04:39.333Z,4.50
2022-07-26T15:14:45.749Z,4.70
2022-07-26T15:19:47.935Z,5.30
2022-07-26T15:24:50.122Z,3.50
2022-07-26T15:34:54.291Z,4.40
2022-07-26T15:39:56.440Z,5.50
2022-07-26T15:44:59.473Z,8.20
2022-07-26T15:50:03.752Z,4.30
2022-07-26T15:55:08.545Z,4.80
2022-07-26T16:00:12.377Z,4.70
2022-07-26T16:05:15.289Z,5.50
2022-07-26T16:10:17.559Z,5.10
2022-07-26T16:15:22.517Z,6.10
2022-07-26T16:20:25.011Z,3.90
2022-07-26T16:30:29.372Z,5.90
2022-07-26T16:35:31.557Z,5.00
2022-07-26T16:40:34.263Z,3.70
2022-07-26T16:45:36.847Z,3.40
2022-07-26T16:50:40.264Z,3.40
2022-07-26T16:55:44.487Z,4.50
2022-07-26T17:00:47.006Z,3.90
2022-07-26T17:05:50.395Z,6.20
2022-07-26T17:10:52.473Z,4.30
2022-07-26T17:15:54.597Z,4.20
2022-07-26T17:20:57.972Z,6.90
2022-07-26T17:26:00.357Z,6.10
2022-07-26T17:31:02.568Z,5.90
2022-07-26T17:36:27.868Z,6.10
2022-07-26T17:41:33.462Z,12.70
2022-07-26T17:46:36.178Z,13.40
2022-07-26T18:01:53.580Z,30.10
2022-07-26T18:06:56.465Z,32.90
2022-07-26T18:11:58.725Z,33.30
2022-07-26T18:17:01.119Z,34.00
2022-07-26T18:22:06.062Z,33.40
2022-07-26T18:27:08.867Z,33.10
2022-07-26T18:37:13.135Z,14.80
2022-07-26T18:42:16.569Z,13.30
2022-07-26T18:47:19.451Z,29.30
2022-07-26T18:52:28.459Z,21.80
2022-07-26T18:57:39.189Z,10.60
2022-07-26T19:02:42.712Z,19.00
2022-07-26T19:07:46.305Z,23.40
2022-07-26T19:12:49.685Z,10.20
2022-07-26T19:17:52.210Z,25.90
2022-07-26T19:22:54.292Z,21.90
2022-07-26T19:27:57.094Z,20.70
2022-07-26T19:38:01.873Z,5.20
2022-07-26T19:43:04.259Z,6.60
2022-07-26T19:48:07.365Z,6.60
2022-07-26T19:53:09.347Z,6.90
2022-07-26T19:58:14.909Z,6.30
2022-07-26T20:03:17.306Z,3.50
2022-07-26T20:08:19.584Z,5.40
2022-07-26T20:13:21.840Z,3.60
2022-07-26T20:18:24.693Z,4.30
2022-07-26T20:23:28.596Z,5.60
2022-07-26T20:28:30.783Z,4.00
2022-07-26T20:33:32.963Z,3.50
2022-07-26T20:38:35.363Z,5.10
2022-07-26T20:43:37.439Z,1.90
2022-07-26T20:48:41.177Z,4.00
2022-07-26T20:53:43.240Z,2.50
2022-07-26T20:58:46.651Z,2.60
2022-07-26T21:03:48.842Z,2.60
2022-07-26T21:08:51.428Z,1.60
2022-07-26T21:13:53.623Z,1.50
2022-07-26T21:18:56.102Z,1.60
2022-07-26T21:23:57.986Z,2.10
2022-07-26T21:28:59.858Z,3.40
2022-07-26T21:34:01.686Z,3.70
2022-07-26T21:39:04.138Z,4.10
2022-07-26T21:44:06.103Z,2.90
2022-07-26T21:49:08.312Z,4.00
2022-07-26T21:54:10.677Z,2.50
2022-07-26T21:59:13.504Z,3.90
2022-07-26T22:04:17.609Z,3.80
2022-07-26T22:09:19.483Z,4.40
2022-07-26T22:14:21.569Z,1.80
2022-07-26T22:19:23.448Z,5.20
2022-07-26T22:24:25.318Z,3.00
2022-07-26T22:29:27.302Z,1.80
2022-07-26T22:34:40.685Z,5.60
2022-07-26T22:39:42.629Z,3.40
2022-07-26T22:44:45.016Z,2.40
2022-07-26T22:49:46.909Z,3.70
2022-07-26T22:54:48.872Z,3.30
2022-07-26T22:59:50.952Z,3.20
2022-07-26T23:04:52.929Z,3.10
2022-07-26T23:09:54.807Z,4.90
2022-07-26T23:14:56.686Z,1.60
2022-07-26T23:19:58.665Z,2.30
2022-07-26T23:25:00.774Z,2.20
2022-07-26T23:30:03.239Z,1.90
2022-07-26T23:35:06.636Z,1.60
2022-07-26T23:40:09.656Z,2.70
2022-07-26T23:45:11.634Z,2.80
2022-07-26T23:50:13.715Z,4.20
2022-07-26T23:55:15.801Z,3.00
